createdAt,value
2018-12-26T00:00:29.765Z,74.33
2018-12-26T00:05:49.794Z,74.43
2018-12-26T00:11:11.197Z,74.40
2018-12-26T00:16:30.670Z,74.23
2018-12-26T00:21:50.143Z,73.99
2018-12-26T00:27:10.405Z,74.31
2018-12-26T00:32:30.305Z,74.08
2018-12-26T00:37:50.572Z,72.70
2018-12-26T00:43:11.301Z,73.42
2018-12-26T00:48:30.773Z,73.72
2018-12-26T00:53:53.023Z,73.09
2018-12-26T00:59:14.531Z,72.31
2018-12-26T01:04:35.955Z,73.33
2018-12-26T01:09:55.289Z,72.84
2018-12-26T01:15:16.237Z,72.52
2018-12-26T01:20:35.284Z,72.05
2018-12-26T01:25:55.809Z,72.96
2018-12-26T01:31:15.685Z,72.63
2018-12-26T01:36:35.111Z,72.57
2018-12-26T01:41:54.679Z,72.83
2018-12-26T01:47:14.497Z,71.86
2018-12-26T01:52:34.228Z,72.09
2018-12-26T01:57:53.656Z,72.48
2018-12-26T02:03:13.193Z,72.88
2018-12-26T02:08:32.279Z,72.31
2018-12-26T02:13:51.415Z,71.79
2018-12-26T02:19:10.404Z,72.21
2018-12-26T02:24:30.194Z,71.07
2018-12-26T02:29:49.911Z,72.30
2018-12-26T02:35:09.728Z,72.11
2018-12-26T02:40:29.428Z,71.08
2018-12-26T02:45:48.437Z,72.34
2018-12-26T02:51:07.638Z,72.13
2018-12-26T02:56:28.398Z,72.34
2018-12-26T03:01:47.470Z,71.79
2018-12-26T03:07:07.134Z,72.09
2018-12-26T03:12:26.903Z,71.67
2018-12-26T03:17:46.135Z,71.65
2018-12-26T03:23:05.351Z,71.81
2018-12-26T03:28:25.131Z,72.16
2018-12-26T03:33:44.747Z,71.85
2018-12-26T03:39:07.146Z,72.02
2018-12-26T03:44:27.759Z,71.56
2018-12-26T03:49:47.558Z,72.54
2018-12-26T03:55:07.552Z,71.87
2018-12-26T04:00:27.705Z,72.96
2018-12-26T04:05:48.014Z,72.34
2018-12-26T04:11:06.922Z,72.08
2018-12-26T04:16:26.304Z,72.66
2018-12-26T04:21:45.902Z,72.03
2018-12-26T04:27:05.351Z,72.82
2018-12-26T04:32:24.610Z,71.67
2018-12-26T04:37:44.120Z,72.55
2018-12-26T04:43:04.269Z,72.90
2018-12-26T04:48:23.998Z,72.36
2018-12-26T04:53:43.329Z,72.33
2018-12-26T04:59:03.577Z,72.22
2018-12-26T05:04:23.573Z,72.96
2018-12-26T05:09:43.163Z,72.92
2018-12-26T05:15:03.096Z,72.73
2018-12-26T05:20:22.645Z,73.28
2018-12-26T05:25:42.585Z,73.91
2018-12-26T05:31:02.833Z,74.18
2018-12-26T05:36:21.597Z,74.76
2018-12-26T05:41:41.192Z,74.85
2018-12-26T05:47:01.752Z,75.04
2018-12-26T05:52:21.710Z,74.64
2018-12-26T05:57:43.305Z,74.78
2018-12-26T06:03:03.000Z,74.58
2018-12-26T06:08:23.674Z,74.03
2018-12-26T06:13:42.919Z,75.04
2018-12-26T06:19:02.434Z,74.51
2018-12-26T06:24:22.135Z,75.19
2018-12-26T06:29:41.398Z,74.27
2018-12-26T06:35:01.908Z,73.78
2018-12-26T06:40:22.903Z,74.30
2018-12-26T06:45:43.509Z,73.98
2018-12-26T06:51:03.669Z,73.17
2018-12-26T06:56:22.972Z,72.95
2018-12-26T07:01:42.496Z,72.75
2018-12-26T07:07:02.457Z,72.38
2018-12-26T07:12:21.447Z,72.59
2018-12-26T07:17:41.731Z,72.41
2018-12-26T07:23:01.524Z,72.28
2018-12-26T07:28:21.032Z,72.30
2018-12-26T07:33:40.708Z,72.34
2018-12-26T07:39:00.346Z,71.12
2018-12-26T07:44:21.603Z,70.94
2018-12-26T07:49:40.842Z,72.15
2018-12-26T07:55:00.268Z,71.11
2018-12-26T08:00:19.810Z,71.00
2018-12-26T08:05:38.780Z,71.22
2018-12-26T08:10:58.204Z,70.07
2018-12-26T08:16:17.357Z,68.72
2018-12-26T08:21:36.846Z,69.95
2018-12-26T08:26:57.018Z,69.92
2018-12-26T08:32:16.546Z,69.11
2018-12-26T08:37:36.031Z,70.12
2018-12-26T08:42:55.502Z,68.20
2018-12-26T08:48:14.732Z,68.85
2018-12-26T08:53:34.294Z,69.01
2018-12-26T08:58:53.689Z,68.03
2018-12-26T09:04:13.942Z,68.25
2018-12-26T09:09:33.884Z,67.51
2018-12-26T09:14:54.180Z,67.51
2018-12-26T09:20:13.656Z,68.28
2018-12-26T09:25:33.911Z,67.48
2018-12-26T09:30:53.755Z,66.84
2018-12-26T09:36:13.248Z,66.83
2018-12-26T09:41:32.694Z,67.00
2018-12-26T09:46:51.833Z,66.51
2018-12-26T09:52:11.554Z,65.98
2018-12-26T09:57:31.475Z,64.37
2018-12-26T10:02:51.285Z,63.77
2018-12-26T10:08:11.526Z,63.97
2018-12-26T10:13:31.774Z,62.46
2018-12-26T10:18:51.775Z,61.40
2018-12-26T10:24:11.449Z,62.74
2018-12-26T10:29:30.514Z,64.11
2018-12-26T10:34:50.546Z,63.50
2018-12-26T10:40:10.757Z,61.46
2018-12-26T10:45:30.346Z,61.39
2018-12-26T10:50:50.352Z,59.75
2018-12-26T10:56:10.144Z,59.79
2018-12-26T11:01:30.009Z,58.15
2018-12-26T11:06:49.348Z,60.44
2018-12-26T11:12:09.486Z,58.41
2018-12-26T11:17:30.138Z,57.31
2018-12-26T11:22:49.710Z,56.68
2018-12-26T11:28:09.874Z,54.39
2018-12-26T11:33:29.428Z,56.48
2018-12-26T11:38:49.046Z,55.48
2018-12-26T11:44:08.737Z,55.88
2018-12-26T11:49:28.440Z,55.37
2018-12-26T11:54:48.575Z,55.99
2018-12-26T12:00:07.687Z,55.84
2018-12-26T12:05:27.563Z,51.05
2018-12-26T12:10:47.584Z,52.99
2018-12-26T12:16:07.550Z,52.26
2018-12-26T12:21:26.621Z,51.04
2018-12-26T12:26:47.022Z,49.67
2018-12-26T12:32:06.516Z,49.59
2018-12-26T12:37:26.932Z,51.21
2018-12-26T12:42:47.163Z,48.37
2018-12-26T12:48:07.069Z,46.15
2018-12-26T12:53:26.732Z,44.03
2018-12-26T12:58:46.059Z,46.21
2018-12-26T13:04:05.986Z,44.67
2018-12-26T13:09:26.266Z,41.46
2018-12-26T13:14:46.253Z,43.40
2018-12-26T13:20:08.416Z,42.52
2018-12-26T13:25:27.431Z,41.53
2018-12-26T13:30:47.636Z,44.42
2018-12-26T13:36:06.956Z,46.89
2018-12-26T13:41:26.571Z,49.03
2018-12-26T13:46:46.876Z,51.16
2018-12-26T13:52:06.794Z,53.01
2018-12-26T13:57:27.000Z,55.94
2018-12-26T14:02:46.490Z,57.05
2018-12-26T14:08:07.101Z,57.78
2018-12-26T14:13:27.799Z,59.65
2018-12-26T14:18:48.378Z,61.22
2018-12-26T14:24:07.594Z,62.29
2018-12-26T14:29:27.320Z,63.44
2018-12-26T14:34:47.193Z,63.45
2018-12-26T14:40:06.268Z,64.25
2018-12-26T14:45:25.953Z,64.87
2018-12-26T14:50:45.294Z,65.49
2018-12-26T14:56:04.827Z,66.58
2018-12-26T15:01:24.126Z,66.94
2018-12-26T15:06:43.809Z,68.20
2018-12-26T15:12:03.061Z,69.34
2018-12-26T15:17:23.459Z,70.67
2018-12-26T15:22:43.017Z,70.92
2018-12-26T15:28:03.600Z,71.99
2018-12-26T15:33:23.082Z,72.34
2018-12-26T15:38:43.548Z,72.94
2018-12-26T15:44:02.551Z,72.31
2018-12-26T15:49:23.306Z,72.98
2018-12-26T15:54:42.897Z,72.54
2018-12-26T16:00:02.714Z,72.42
2018-12-26T16:05:22.396Z,72.69
2018-12-26T16:10:42.480Z,73.09
2018-12-26T16:16:02.021Z,73.18
2018-12-26T16:21:22.428Z,73.35
2018-12-26T16:26:42.056Z,73.06
2018-12-26T16:32:01.425Z,72.63
2018-12-26T16:37:21.567Z,73.48
2018-12-26T16:42:42.684Z,73.21
2018-12-26T16:48:01.980Z,72.43
2018-12-26T16:53:21.471Z,72.73
2018-12-26T16:58:46.359Z,72.19
2018-12-26T17:04:06.639Z,71.80
2018-12-26T17:09:25.875Z,72.35
2018-12-26T17:14:45.841Z,72.79
2018-12-26T17:20:06.076Z,72.31
2018-12-26T17:25:25.959Z,72.53
2018-12-26T17:30:45.695Z,72.00
2018-12-26T17:36:05.430Z,72.53
2018-12-26T17:41:34.281Z,71.42
2018-12-26T17:47:01.648Z,71.18
2018-12-26T17:52:22.551Z,71.05
2018-12-26T17:57:46.314Z,70.62
2018-12-26T18:03:06.224Z,70.57
2018-12-26T18:08:26.168Z,70.25
2018-12-26T18:13:46.001Z,69.51
2018-12-26T18:19:07.024Z,69.74
2018-12-26T18:24:26.686Z,69.34
2018-12-26T18:29:51.906Z,68.40
2018-12-26T18:35:11.209Z,68.46
2018-12-26T18:40:31.123Z,68.77
2018-12-26T18:45:54.450Z,68.29
2018-12-26T18:51:13.888Z,69.14
2018-12-26T18:56:34.668Z,69.14
2018-12-26T19:01:53.978Z,68.99
2018-12-26T19:07:13.786Z,68.69
2018-12-26T19:12:33.903Z,68.79
2018-12-26T19:18:14.230Z,68.17
2018-12-26T19:23:34.177Z,68.32
2018-12-26T19:28:54.925Z,67.64
2018-12-26T19:34:16.799Z,67.44
2018-12-26T19:39:36.646Z,67.72
2018-12-26T19:44:56.777Z,67.06
2018-12-26T19:50:17.794Z,67.35
2018-12-26T19:55:39.278Z,67.53
2018-12-26T20:01:00.198Z,68.09
2018-12-26T20:06:22.531Z,67.79
2018-12-26T20:11:42.833Z,67.79
2018-12-26T20:17:02.672Z,67.92
2018-12-26T20:22:23.134Z,68.81
2018-12-26T20:27:43.945Z,68.49
2018-12-26T20:33:03.926Z,67.80
2018-12-26T20:38:25.510Z,66.54
2018-12-26T20:43:45.649Z,64.41
2018-12-26T20:49:06.053Z,64.13
2018-12-26T20:54:25.967Z,63.82
2018-12-26T20:59:45.893Z,64.06
2018-12-26T21:05:05.826Z,63.82
2018-12-26T21:10:25.567Z,64.33
2018-12-26T21:15:45.455Z,64.51
2018-12-26T21:21:05.186Z,64.76
2018-12-26T21:26:27.163Z,64.35
2018-12-26T21:31:47.438Z,64.12
2018-12-26T21:37:07.550Z,62.95
2018-12-26T21:42:30.733Z,63.01
2018-12-26T21:47:51.333Z,62.37
2018-12-26T21:53:11.376Z,61.34
2018-12-26T21:58:32.592Z,61.57
2018-12-26T22:03:53.738Z,60.39
2018-12-26T22:09:13.272Z,61.45
2018-12-26T22:14:32.981Z,63.22
2018-12-26T22:19:57.237Z,64.49
2018-12-26T22:25:17.174Z,67.53
2018-12-26T22:30:37.391Z,68.59
2018-12-26T22:35:57.516Z,68.77
2018-12-26T22:41:16.686Z,67.29
2018-12-26T22:46:36.362Z,66.87
2018-12-26T22:51:55.395Z,66.32
2018-12-26T22:57:15.213Z,64.60
2018-12-26T23:02:38.811Z,63.44
2018-12-26T23:07:53.776Z,64.25
2018-12-26T23:13:14.597Z,64.79
2018-12-26T23:18:33.548Z,66.11
2018-12-26T23:23:53.848Z,67.43
2018-12-26T23:29:13.774Z,67.99
2018-12-26T23:34:33.332Z,69.34
2018-12-26T23:39:52.507Z,70.10
2018-12-26T23:45:11.789Z,71.51
2018-12-26T23:50:32.190Z,71.12
2018-12-26T23:55:51.124Z,71.07
